Loxley, Alabama
Current Conditions -  °F | °C
As of 1:35 AM on Sunday 23 Nov 2014 (Local Time) from KCQF Reporting Station
Overcast Overcast  
Wind Chill: 61°   Ceiling: 300
Heat Index: 61°   Visibility: 7mi
Dew Point: 61°   Wind: 10mph
Humidity: 100%   Direction: 100°E
Pressure: 29.86"   Gusts: NA
Location:  30.62°N, 87.75°W
Report Text: KCQF 230735Z AUTO 10009KT 7SM OVC003 16/16 A2986 RMK AO2
Loading
Personal Weather Stations






























Interactive Weather Map New forecast layout! Learn more

10-Day Weather Forecast

Advertisements
Track Severe Weather on mobile